aviador You're here:

SCIP Decoded Metar

EASTER ISLAND in CHILE
Report Time2017-09-23 09:00:00
UTC Time2017-09-23 09:11:43
Flight Rules vfr VFR
Wind090° at 07 kt
W.Decomp.*RWY 10: 6.3 kt HW 3 kt LCW
W.Rank090° ranks 8
Current wind is below 090° avg. (7.3)
Visibility9999 m
Phenomena:N/A
Clouds:Scattered 030 Hf
Expected CloudBase > 2,800 ft AGL from Temp-Dew spread
CeilingNone
Temp16°C (ISA +1)
Dew Point09°C (63% RH)
AAT13.3°C
QNH1025 hPa
Density Alt148 ft
Elevation226 ft
Report Wrong Elevation
Raw Report
SCIP 230900Z 09007KT 9999 SCT030 16/09 Q1025 NOSIG=

Extra information for SCIP:More info

Metar Taf Metar & Taf Last 4 Metars F.Rules Stats Wind Profile Meteogram Temp Stats Airport Information Weather charts Add Link Nearby VenuesMetar ALERT Operation Metar Decoded Social comments